sensor_id;sensor_type;location;lat;lon;timestamp;P1;durP1;ratioP1;P2;durP2;ratioP2
18019;SDS011;9135;48.362;10.878;2023-05-23T00:00:53;4.78;;;3.42;;
18019;SDS011;9135;48.362;10.878;2023-05-23T00:03:19;4.13;;;3.47;;
18019;SDS011;9135;48.362;10.878;2023-05-23T00:05:48;3.92;;;2.78;;
18019;SDS011;9135;48.362;10.878;2023-05-23T00:08:15;5.78;;;3.10;;
18019;SDS011;9135;48.362;10.878;2023-05-23T00:10:41;4.43;;;3.67;;
18019;SDS011;9135;48.362;10.878;2023-05-23T00:13:07;4.07;;;3.22;;
18019;SDS011;9135;48.362;10.878;2023-05-23T00:15:34;4.80;;;4.07;;
18019;SDS011;9135;48.362;10.878;2023-05-23T00:18:05;7.47;;;4.28;;
18019;SDS011;9135;48.362;10.878;2023-05-23T00:20:33;4.90;;;3.58;;
18019;SDS011;9135;48.362;10.878;2023-05-23T00:23:00;7.07;;;4.25;;
18019;SDS011;9135;48.362;10.878;2023-05-23T00:25:27;5.88;;;3.55;;
18019;SDS011;9135;48.362;10.878;2023-05-23T00:27:58;7.10;;;4.18;;
18019;SDS011;9135;48.362;10.878;2023-05-23T00:30:24;9.32;;;3.28;;
18019;SDS011;9135;48.362;10.878;2023-05-23T00:32:50;5.40;;;4.18;;
18019;SDS011;9135;48.362;10.878;2023-05-23T00:35:18;6.07;;;3.72;;
18019;SDS011;9135;48.362;10.878;2023-05-23T00:37:44;4.25;;;3.83;;
18019;SDS011;9135;48.362;10.878;2023-05-23T00:40:10;3.20;;;2.90;;
18019;SDS011;9135;48.362;10.878;2023-05-23T00:42:36;4.95;;;4.03;;
18019;SDS011;9135;48.362;10.878;2023-05-23T00:45:02;6.47;;;4.13;;
18019;SDS011;9135;48.362;10.878;2023-05-23T00:47:29;3.60;;;3.05;;
18019;SDS011;9135;48.362;10.878;2023-05-23T00:49:55;5.88;;;3.92;;
18019;SDS011;9135;48.362;10.878;2023-05-23T00:52:21;5.47;;;3.70;;
18019;SDS011;9135;48.362;10.878;2023-05-23T00:54:47;5.20;;;4.28;;
18019;SDS011;9135;48.362;10.878;2023-05-23T00:57:13;6.93;;;4.50;;
18019;SDS011;9135;48.362;10.878;2023-05-23T00:59:39;4.75;;;3.67;;
18019;SDS011;9135;48.362;10.878;2023-05-23T01:02:05;7.53;;;3.95;;
18019;SDS011;9135;48.362;10.878;2023-05-23T01:04:32;5.70;;;3.55;;
18019;SDS011;9135;48.362;10.878;2023-05-23T01:06:58;4.68;;;3.83;;
18019;SDS011;9135;48.362;10.878;2023-05-23T01:09:25;4.80;;;3.53;;
18019;SDS011;9135;48.362;10.878;2023-05-23T01:14:33;5.03;;;3.33;;
18019;SDS011;9135;48.362;10.878;2023-05-23T01:17:02;6.70;;;4.00;;
18019;SDS011;9135;48.362;10.878;2023-05-23T01:22:05;6.72;;;3.42;;
18019;SDS011;9135;48.362;10.878;2023-05-23T01:24:40;5.95;;;4.38;;
18019;SDS011;9135;48.362;10.878;2023-05-23T01:27:22;7.25;;;5.20;;
18019;SDS011;9135;48.362;10.878;2023-05-23T01:29:50;6.43;;;3.72;;
18019;SDS011;9135;48.362;10.878;2023-05-23T01:32:19;6.25;;;3.95;;
18019;SDS011;9135;48.362;10.878;2023-05-23T01:34:46;9.00;;;5.10;;
18019;SDS011;9135;48.362;10.878;2023-05-23T01:37:13;6.63;;;3.55;;
18019;SDS011;9135;48.362;10.878;2023-05-23T01:39:42;5.10;;;4.18;;
18019;SDS011;9135;48.362;10.878;2023-05-23T01:42:08;4.82;;;3.75;;
18019;SDS011;9135;48.362;10.878;2023-05-23T01:44:34;6.28;;;3.60;;
18019;SDS011;9135;48.362;10.878;2023-05-23T01:47:04;6.07;;;4.32;;
18019;SDS011;9135;48.362;10.878;2023-05-23T01:49:31;5.97;;;4.50;;
18019;SDS011;9135;48.362;10.878;2023-05-23T01:51:59;6.60;;;4.53;;
18019;SDS011;9135;48.362;10.878;2023-05-23T01:54:26;7.50;;;4.07;;
18019;SDS011;9135;48.362;10.878;2023-05-23T01:56:53;5.80;;;3.53;;
18019;SDS011;9135;48.362;10.878;2023-05-23T01:59:20;3.80;;;3.45;;
18019;SDS011;9135;48.362;10.878;2023-05-23T02:01:46;6.25;;;3.58;;
18019;SDS011;9135;48.362;10.878;2023-05-23T02:04:12;6.47;;;4.45;;
18019;SDS011;9135;48.362;10.878;2023-05-23T02:06:38;7.28;;;4.97;;
18019;SDS011;9135;48.362;10.878;2023-05-23T02:09:05;6.65;;;4.70;;
18019;SDS011;9135;48.362;10.878;2023-05-23T02:11:32;5.75;;;3.78;;
18019;SDS011;9135;48.362;10.878;2023-05-23T02:13:58;3.88;;;3.55;;
18019;SDS011;9135;48.362;10.878;2023-05-23T02:16:24;5.25;;;3.53;;
18019;SDS011;9135;48.362;10.878;2023-05-23T02:18:51;5.63;;;4.30;;
18019;SDS011;9135;48.362;10.878;2023-05-23T02:21:20;8.63;;;4.53;;
18019;SDS011;9135;48.362;10.878;2023-05-23T02:23:46;5.30;;;3.80;;
18019;SDS011;9135;48.362;10.878;2023-05-23T02:26:12;4.45;;;3.70;;
18019;SDS011;9135;48.362;10.878;2023-05-23T02:28:38;8.25;;;5.43;;
18019;SDS011;9135;48.362;10.878;2023-05-23T02:31:05;7.50;;;4.95;;
18019;SDS011;9135;48.362;10.878;2023-05-23T02:33:31;5.72;;;4.20;;
18019;SDS011;9135;48.362;10.878;2023-05-23T02:35:57;6.30;;;4.50;;
18019;SDS011;9135;48.362;10.878;2023-05-23T02:38:23;6.05;;;3.92;;
18019;SDS011;9135;48.362;10.878;2023-05-23T02:40:50;8.13;;;4.57;;
18019;SDS011;9135;48.362;10.878;2023-05-23T02:43:18;3.10;;;2.85;;
18019;SDS011;9135;48.362;10.878;2023-05-23T02:45:44;5.82;;;4.22;;
18019;SDS011;9135;48.362;10.878;2023-05-23T02:48:10;6.10;;;4.55;;
18019;SDS011;9135;48.362;10.878;2023-05-23T02:50:36;5.60;;;4.68;;
18019;SDS011;9135;48.362;10.878;2023-05-23T02:53:02;6.32;;;4.75;;
18019;SDS011;9135;48.362;10.878;2023-05-23T02:55:28;6.07;;;4.55;;
18019;SDS011;9135;48.362;10.878;2023-05-23T02:57:55;7.28;;;4.90;;
18019;SDS011;9135;48.362;10.878;2023-05-23T03:00:22;4.18;;;3.80;;
18019;SDS011;9135;48.362;10.878;2023-05-23T03:02:48;4.35;;;3.83;;
18019;SDS011;9135;48.362;10.878;2023-05-23T03:05:15;6.38;;;3.75;;
18019;SDS011;9135;48.362;10.878;2023-05-23T03:07:41;7.78;;;5.38;;
18019;SDS011;9135;48.362;10.878;2023-05-23T03:10:08;12.57;;;4.32;;
18019;SDS011;9135;48.362;10.878;2023-05-23T03:12:34;5.25;;;4.63;;
18019;SDS011;9135;48.362;10.878;2023-05-23T03:15:01;8.20;;;4.95;;
18019;SDS011;9135;48.362;10.878;2023-05-23T03:17:27;5.38;;;3.80;;
18019;SDS011;9135;48.362;10.878;2023-05-23T03:19:53;7.55;;;5.03;;
18019;SDS011;9135;48.362;10.878;2023-05-23T03:22:19;9.95;;;4.38;;
18019;SDS011;9135;48.362;10.878;2023-05-23T03:24:45;6.90;;;4.32;;
18019;SDS011;9135;48.362;10.878;2023-05-23T03:27:11;5.55;;;4.57;;
18019;SDS011;9135;48.362;10.878;2023-05-23T03:29:37;5.85;;;4.18;;
18019;SDS011;9135;48.362;10.878;2023-05-23T03:32:03;7.55;;;5.47;;
18019;SDS011;9135;48.362;10.878;2023-05-23T03:34:32;8.18;;;4.80;;
18019;SDS011;9135;48.362;10.878;2023-05-23T03:37:00;8.40;;;5.25;;
18019;SDS011;9135;48.362;10.878;2023-05-23T03:39:26;7.10;;;3.40;;
18019;SDS011;9135;48.362;10.878;2023-05-23T03:41:52;9.10;;;5.30;;
18019;SDS011;9135;48.362;10.878;2023-05-23T03:44:18;7.22;;;5.03;;
18019;SDS011;9135;48.362;10.878;2023-05-23T03:46:44;7.72;;;4.93;;
18019;SDS011;9135;48.362;10.878;2023-05-23T03:49:13;10.23;;;5.03;;
18019;SDS011;9135;48.362;10.878;2023-05-23T03:51:39;6.22;;;3.95;;
18019;SDS011;9135;48.362;10.878;2023-05-23T03:54:05;5.63;;;4.95;;
18019;SDS011;9135;48.362;10.878;2023-05-23T03:56:31;5.10;;;3.78;;
18019;SDS011;9135;48.362;10.878;2023-05-23T03:58:57;9.70;;;5.95;;
18019;SDS011;9135;48.362;10.878;2023-05-23T04:01:23;5.50;;;5.00;;
18019;SDS011;9135;48.362;10.878;2023-05-23T04:03:49;11.18;;;5.53;;
18019;SDS011;9135;48.362;10.878;2023-05-23T04:06:16;8.07;;;4.90;;
18019;SDS011;9135;48.362;10.878;2023-05-23T04:08:44;8.65;;;5.50;;
18019;SDS011;9135;48.362;10.878;2023-05-23T04:11:10;7.47;;;4.72;;
18019;SDS011;9135;48.362;10.878;2023-05-23T04:13:36;16.77;;;4.68;;
18019;SDS011;9135;48.362;10.878;2023-05-23T04:16:02;8.98;;;5.22;;
18019;SDS011;9135;48.362;10.878;2023-05-23T04:18:30;13.48;;;4.65;;
18019;SDS011;9135;48.362;10.878;2023-05-23T04:20:57;9.23;;;5.40;;
18019;SDS011;9135;48.362;10.878;2023-05-23T04:23:23;7.07;;;4.57;;
18019;SDS011;9135;48.362;10.878;2023-05-23T04:25:49;9.10;;;5.72;;
18019;SDS011;9135;48.362;10.878;2023-05-23T04:28:16;7.05;;;4.88;;
18019;SDS011;9135;48.362;10.878;2023-05-23T04:30:42;18.17;;;6.68;;
18019;SDS011;9135;48.362;10.878;2023-05-23T04:33:09;9.88;;;4.55;;
18019;SDS011;9135;48.362;10.878;2023-05-23T04:35:35;10.82;;;5.05;;
18019;SDS011;9135;48.362;10.878;2023-05-23T04:38:04;12.20;;;5.07;;
18019;SDS011;9135;48.362;10.878;2023-05-23T04:40:30;8.80;;;5.65;;
18019;SDS011;9135;48.362;10.878;2023-05-23T04:42:56;10.00;;;6.55;;
18019;SDS011;9135;48.362;10.878;2023-05-23T04:45:22;8.25;;;5.50;;
18019;SDS011;9135;48.362;10.878;2023-05-23T04:47:50;10.88;;;6.18;;
18019;SDS011;9135;48.362;10.878;2023-05-23T04:50:18;11.82;;;7.18;;
18019;SDS011;9135;48.362;10.878;2023-05-23T04:52:46;9.30;;;5.95;;
18019;SDS011;9135;48.362;10.878;2023-05-23T04:55:12;8.73;;;5.13;;
18019;SDS011;9135;48.362;10.878;2023-05-23T04:57:38;7.47;;;5.68;;
18019;SDS011;9135;48.362;10.878;2023-05-23T05:00:04;11.35;;;5.65;;
18019;SDS011;9135;48.362;10.878;2023-05-23T05:02:36;12.40;;;6.70;;
18019;SDS011;9135;48.362;10.878;2023-05-23T05:05:02;11.75;;;6.13;;
18019;SDS011;9135;48.362;10.878;2023-05-23T05:07:29;16.88;;;7.63;;
18019;SDS011;9135;48.362;10.878;2023-05-23T05:09:55;12.48;;;7.15;;
18019;SDS011;9135;48.362;10.878;2023-05-23T05:12:21;15.32;;;6.55;;
18019;SDS011;9135;48.362;10.878;2023-05-23T05:14:47;8.77;;;6.15;;
18019;SDS011;9135;48.362;10.878;2023-05-23T05:17:13;12.15;;;7.93;;
18019;SDS011;9135;48.362;10.878;2023-05-23T05:19:39;12.00;;;6.75;;
18019;SDS011;9135;48.362;10.878;2023-05-23T05:22:05;7.40;;;6.40;;
18019;SDS011;9135;48.362;10.878;2023-05-23T05:24:32;9.65;;;5.85;;
18019;SDS011;9135;48.362;10.878;2023-05-23T05:26:58;12.10;;;6.28;;
18019;SDS011;9135;48.362;10.878;2023-05-23T05:29:24;16.20;;;6.78;;
18019;SDS011;9135;48.362;10.878;2023-05-23T05:31:50;9.57;;;6.38;;
18019;SDS011;9135;48.362;10.878;2023-05-23T05:34:18;10.35;;;6.45;;
18019;SDS011;9135;48.362;10.878;2023-05-23T05:36:44;7.25;;;6.10;;
18019;SDS011;9135;48.362;10.878;2023-05-23T05:39:12;8.68;;;6.53;;
18019;SDS011;9135;48.362;10.878;2023-05-23T05:41:38;10.18;;;6.03;;
18019;SDS011;9135;48.362;10.878;2023-05-23T05:44:04;10.90;;;6.47;;
18019;SDS011;9135;48.362;10.878;2023-05-23T05:46:30;12.45;;;7.28;;
18019;SDS011;9135;48.362;10.878;2023-05-23T05:48:56;15.23;;;7.72;;
18019;SDS011;9135;48.362;10.878;2023-05-23T05:51:22;13.38;;;8.00;;
18019;SDS011;9135;48.362;10.878;2023-05-23T05:53:48;11.25;;;6.72;;
18019;SDS011;9135;48.362;10.878;2023-05-23T05:56:14;11.00;;;7.22;;
18019;SDS011;9135;48.362;10.878;2023-05-23T05:58:40;13.60;;;7.55;;
18019;SDS011;9135;48.362;10.878;2023-05-23T06:01:06;17.63;;;7.95;;
18019;SDS011;9135;48.362;10.878;2023-05-23T06:03:33;11.30;;;7.38;;
18019;SDS011;9135;48.362;10.878;2023-05-23T06:05:59;11.32;;;7.30;;
18019;SDS011;9135;48.362;10.878;2023-05-23T06:08:26;16.20;;;8.45;;
18019;SDS011;9135;48.362;10.878;2023-05-23T06:10:52;16.52;;;8.38;;
18019;SDS011;9135;48.362;10.878;2023-05-23T06:13:18;11.38;;;6.20;;
18019;SDS011;9135;48.362;10.878;2023-05-23T06:15:44;13.35;;;7.45;;
18019;SDS011;9135;48.362;10.878;2023-05-23T06:18:10;12.40;;;7.65;;
18019;SDS011;9135;48.362;10.878;2023-05-23T06:20:36;9.75;;;7.25;;
18019;SDS011;9135;48.362;10.878;2023-05-23T06:23:02;14.35;;;8.30;;
18019;SDS011;9135;48.362;10.878;2023-05-23T06:25:29;9.50;;;5.97;;
18019;SDS011;9135;48.362;10.878;2023-05-23T06:27:55;12.07;;;6.95;;
18019;SDS011;9135;48.362;10.878;2023-05-23T06:30:21;11.23;;;7.85;;
18019;SDS011;9135;48.362;10.878;2023-05-23T06:32:48;15.50;;;8.05;;
18019;SDS011;9135;48.362;10.878;2023-05-23T06:35:14;12.18;;;7.15;;
18019;SDS011;9135;48.362;10.878;2023-05-23T06:37:41;12.02;;;7.35;;
18019;SDS011;9135;48.362;10.878;2023-05-23T06:40:10;19.60;;;10.88;;
18019;SDS011;9135;48.362;10.878;2023-05-23T06:42:37;9.52;;;6.38;;
18019;SDS011;9135;48.362;10.878;2023-05-23T06:45:03;12.70;;;8.43;;
18019;SDS011;9135;48.362;10.878;2023-05-23T06:47:29;15.07;;;7.78;;
18019;SDS011;9135;48.362;10.878;2023-05-23T06:49:55;14.88;;;8.35;;
18019;SDS011;9135;48.362;10.878;2023-05-23T06:52:21;15.30;;;8.95;;
18019;SDS011;9135;48.362;10.878;2023-05-23T06:54:48;14.50;;;8.32;;
18019;SDS011;9135;48.362;10.878;2023-05-23T06:57:14;14.57;;;8.10;;
18019;SDS011;9135;48.362;10.878;2023-05-23T06:59:40;19.98;;;10.48;;
18019;SDS011;9135;48.362;10.878;2023-05-23T07:02:06;10.70;;;8.10;;
18019;SDS011;9135;48.362;10.878;2023-05-23T07:04:32;10.68;;;6.85;;
18019;SDS011;9135;48.362;10.878;2023-05-23T07:06:58;12.20;;;6.90;;
18019;SDS011;9135;48.362;10.878;2023-05-23T07:09:24;11.55;;;7.43;;
18019;SDS011;9135;48.362;10.878;2023-05-23T07:11:50;16.08;;;8.10;;
18019;SDS011;9135;48.362;10.878;2023-05-23T07:14:16;12.50;;;7.10;;
18019;SDS011;9135;48.362;10.878;2023-05-23T07:16:44;12.85;;;6.93;;
18019;SDS011;9135;48.362;10.878;2023-05-23T07:19:10;10.55;;;6.40;;
18019;SDS011;9135;48.362;10.878;2023-05-23T07:21:36;13.90;;;7.68;;
18019;SDS011;9135;48.362;10.878;2023-05-23T07:24:02;9.27;;;6.00;;
18019;SDS011;9135;48.362;10.878;2023-05-23T07:26:28;12.90;;;8.25;;
18019;SDS011;9135;48.362;10.878;2023-05-23T07:28:55;8.95;;;6.55;;
18019;SDS011;9135;48.362;10.878;2023-05-23T07:31:21;22.45;;;8.70;;
18019;SDS011;9135;48.362;10.878;2023-05-23T07:33:47;14.77;;;7.00;;
18019;SDS011;9135;48.362;10.878;2023-05-23T07:36:13;12.90;;;8.25;;
18019;SDS011;9135;48.362;10.878;2023-05-23T07:38:40;11.40;;;7.32;;
18019;SDS011;9135;48.362;10.878;2023-05-23T07:41:06;12.25;;;5.90;;
18019;SDS011;9135;48.362;10.878;2023-05-23T07:43:32;14.25;;;8.15;;
18019;SDS011;9135;48.362;10.878;2023-05-23T07:45:58;9.93;;;6.78;;
18019;SDS011;9135;48.362;10.878;2023-05-23T07:48:24;13.90;;;7.43;;
18019;SDS011;9135;48.362;10.878;2023-05-23T07:50:51;11.18;;;6.07;;
18019;SDS011;9135;48.362;10.878;2023-05-23T07:53:19;15.18;;;7.68;;
18019;SDS011;9135;48.362;10.878;2023-05-23T07:55:46;12.77;;;6.18;;
18019;SDS011;9135;48.362;10.878;2023-05-23T07:58:12;8.15;;;5.60;;
18019;SDS011;9135;48.362;10.878;2023-05-23T08:00:38;13.80;;;6.22;;
18019;SDS011;9135;48.362;10.878;2023-05-23T08:03:05;9.52;;;5.32;;
18019;SDS011;9135;48.362;10.878;2023-05-23T08:05:32;13.35;;;6.65;;
18019;SDS011;9135;48.362;10.878;2023-05-23T08:07:58;10.70;;;6.70;;
18019;SDS011;9135;48.362;10.878;2023-05-23T08:10:24;16.05;;;7.40;;
18019;SDS011;9135;48.362;10.878;2023-05-23T08:12:53;11.88;;;7.95;;
18019;SDS011;9135;48.362;10.878;2023-05-23T08:15:19;11.70;;;6.57;;
18019;SDS011;9135;48.362;10.878;2023-05-23T08:17:47;10.68;;;7.65;;
18019;SDS011;9135;48.362;10.878;2023-05-23T08:20:14;15.38;;;6.55;;
18019;SDS011;9135;48.362;10.878;2023-05-23T08:22:40;10.30;;;7.10;;
18019;SDS011;9135;48.362;10.878;2023-05-23T08:25:06;13.60;;;6.95;;
18019;SDS011;9135;48.362;10.878;2023-05-23T08:27:32;14.90;;;7.50;;
18019;SDS011;9135;48.362;10.878;2023-05-23T08:29:59;15.75;;;6.93;;
18019;SDS011;9135;48.362;10.878;2023-05-23T08:32:27;10.88;;;6.55;;
18019;SDS011;9135;48.362;10.878;2023-05-23T08:34:53;10.18;;;6.45;;
18019;SDS011;9135;48.362;10.878;2023-05-23T08:37:19;15.32;;;6.93;;
18019;SDS011;9135;48.362;10.878;2023-05-23T08:39:45;14.45;;;7.38;;
18019;SDS011;9135;48.362;10.878;2023-05-23T08:42:11;9.82;;;5.65;;
18019;SDS011;9135;48.362;10.878;2023-05-23T08:44:37;9.75;;;6.63;;
18019;SDS011;9135;48.362;10.878;2023-05-23T08:47:04;9.45;;;6.75;;
18019;SDS011;9135;48.362;10.878;2023-05-23T08:49:32;11.75;;;6.57;;
18019;SDS011;9135;48.362;10.878;2023-05-23T08:52:00;10.98;;;5.50;;
18019;SDS011;9135;48.362;10.878;2023-05-23T08:54:28;11.85;;;6.43;;
18019;SDS011;9135;48.362;10.878;2023-05-23T08:56:54;8.30;;;5.38;;
18019;SDS011;9135;48.362;10.878;2023-05-23T08:59:20;6.85;;;5.88;;
18019;SDS011;9135;48.362;10.878;2023-05-23T09:01:47;9.93;;;6.22;;
18019;SDS011;9135;48.362;10.878;2023-05-23T09:04:14;10.90;;;6.40;;
18019;SDS011;9135;48.362;10.878;2023-05-23T09:06:40;9.32;;;6.15;;
18019;SDS011;9135;48.362;10.878;2023-05-23T09:09:06;13.07;;;6.75;;
18019;SDS011;9135;48.362;10.878;2023-05-23T09:11:33;6.68;;;4.90;;
18019;SDS011;9135;48.362;10.878;2023-05-23T09:13:59;11.18;;;7.00;;
18019;SDS011;9135;48.362;10.878;2023-05-23T09:16:31;12.07;;;7.00;;
18019;SDS011;9135;48.362;10.878;2023-05-23T09:18:58;9.38;;;5.55;;
18019;SDS011;9135;48.362;10.878;2023-05-23T09:21:24;8.05;;;5.53;;
18019;SDS011;9135;48.362;10.878;2023-05-23T09:23:50;10.38;;;6.28;;
18019;SDS011;9135;48.362;10.878;2023-05-23T09:26:17;17.13;;;7.22;;
18019;SDS011;9135;48.362;10.878;2023-05-23T09:28:43;11.15;;;6.35;;
18019;SDS011;9135;48.362;10.878;2023-05-23T09:31:09;6.35;;;5.20;;
18019;SDS011;9135;48.362;10.878;2023-05-23T09:33:41;10.18;;;6.28;;
18019;SDS011;9135;48.362;10.878;2023-05-23T09:36:07;8.60;;;4.82;;
18019;SDS011;9135;48.362;10.878;2023-05-23T09:38:37;7.68;;;5.80;;
18019;SDS011;9135;48.362;10.878;2023-05-23T09:41:03;8.23;;;6.30;;
18019;SDS011;9135;48.362;10.878;2023-05-23T09:43:29;7.70;;;5.35;;
18019;SDS011;9135;48.362;10.878;2023-05-23T09:46:08;10.48;;;6.10;;
18019;SDS011;9135;48.362;10.878;2023-05-23T09:48:35;10.40;;;5.80;;
18019;SDS011;9135;48.362;10.878;2023-05-23T09:51:08;6.97;;;5.20;;
18019;SDS011;9135;48.362;10.878;2023-05-23T09:53:34;8.57;;;4.75;;
18019;SDS011;9135;48.362;10.878;2023-05-23T09:56:01;9.80;;;5.75;;
18019;SDS011;9135;48.362;10.878;2023-05-23T09:58:28;9.85;;;5.65;;
18019;SDS011;9135;48.362;10.878;2023-05-23T10:00:55;11.18;;;5.25;;
18019;SDS011;9135;48.362;10.878;2023-05-23T10:03:57;10.90;;;5.97;;
18019;SDS011;9135;48.362;10.878;2023-05-23T10:06:25;11.00;;;6.05;;
18019;SDS011;9135;48.362;10.878;2023-05-23T10:13:55;10.05;;;6.07;;
18019;SDS011;9135;48.362;10.878;2023-05-23T10:16:26;11.00;;;5.82;;
18019;SDS011;9135;48.362;10.878;2023-05-23T10:18:57;10.05;;;6.05;;
18019;SDS011;9135;48.362;10.878;2023-05-23T10:21:33;11.93;;;5.93;;
18019;SDS011;9135;48.362;10.878;2023-05-23T10:24:02;9.18;;;5.00;;
18019;SDS011;9135;48.362;10.878;2023-05-23T10:26:29;9.85;;;4.82;;
18019;SDS011;9135;48.362;10.878;2023-05-23T10:28:56;7.70;;;5.22;;
18019;SDS011;9135;48.362;10.878;2023-05-23T10:31:22;9.70;;;5.82;;
18019;SDS011;9135;48.362;10.878;2023-05-23T10:33:57;8.32;;;4.65;;
18019;SDS011;9135;48.362;10.878;2023-05-23T10:36:27;4.55;;;4.05;;
18019;SDS011;9135;48.362;10.878;2023-05-23T10:39:00;6.00;;;5.07;;
18019;SDS011;9135;48.362;10.878;2023-05-23T10:42:12;11.57;;;5.60;;
18019;SDS011;9135;48.362;10.878;2023-05-23T10:44:20;9.38;;;7.40;;
18019;SDS011;9135;48.362;10.878;2023-05-23T10:46:49;9.60;;;5.80;;
18019;SDS011;9135;48.362;10.878;2023-05-23T10:49:16;6.00;;;4.55;;
18019;SDS011;9135;48.362;10.878;2023-05-23T10:51:43;5.53;;;4.68;;
18019;SDS011;9135;48.362;10.878;2023-05-23T10:54:12;9.07;;;4.90;;
18019;SDS011;9135;48.362;10.878;2023-05-23T10:56:38;7.18;;;4.65;;
18019;SDS011;9135;48.362;10.878;2023-05-23T10:59:04;5.85;;;4.05;;
18019;SDS011;9135;48.362;10.878;2023-05-23T11:01:30;5.03;;;4.15;;
18019;SDS011;9135;48.362;10.878;2023-05-23T11:03:56;7.28;;;4.55;;
18019;SDS011;9135;48.362;10.878;2023-05-23T11:14:16;6.30;;;4.47;;
18019;SDS011;9135;48.362;10.878;2023-05-23T11:16:43;7.53;;;4.88;;
18019;SDS011;9135;48.362;10.878;2023-05-23T11:21:49;7.03;;;5.47;;
18019;SDS011;9135;48.362;10.878;2023-05-23T11:24:15;6.45;;;4.68;;
18019;SDS011;9135;48.362;10.878;2023-05-23T11:26:51;7.78;;;4.55;;
18019;SDS011;9135;48.362;10.878;2023-05-23T11:29:24;6.18;;;4.38;;
18019;SDS011;9135;48.362;10.878;2023-05-23T11:31:50;6.00;;;4.35;;
18019;SDS011;9135;48.362;10.878;2023-05-23T11:34:19;6.20;;;4.38;;
18019;SDS011;9135;48.362;10.878;2023-05-23T11:36:45;7.05;;;4.47;;
18019;SDS011;9135;48.362;10.878;2023-05-23T11:39:12;5.70;;;4.13;;
18019;SDS011;9135;48.362;10.878;2023-05-23T11:41:40;6.65;;;4.68;;
18019;SDS011;9135;48.362;10.878;2023-05-23T11:44:11;8.43;;;4.45;;
18019;SDS011;9135;48.362;10.878;2023-05-23T11:46:37;9.90;;;4.70;;
18019;SDS011;9135;48.362;10.878;2023-05-23T11:49:09;9.32;;;4.78;;
18019;SDS011;9135;48.362;10.878;2023-05-23T11:51:35;6.47;;;4.07;;
18019;SDS011;9135;48.362;10.878;2023-05-23T11:54:01;6.63;;;4.20;;
18019;SDS011;9135;48.362;10.878;2023-05-23T11:56:27;8.85;;;4.63;;
18019;SDS011;9135;48.362;10.878;2023-05-23T11:58:53;5.85;;;4.22;;
18019;SDS011;9135;48.362;10.878;2023-05-23T12:01:20;9.50;;;5.60;;
18019;SDS011;9135;48.362;10.878;2023-05-23T12:03:47;5.95;;;3.78;;
18019;SDS011;9135;48.362;10.878;2023-05-23T12:06:14;7.15;;;4.78;;
18019;SDS011;9135;48.362;10.878;2023-05-23T12:08:40;4.80;;;3.97;;
18019;SDS011;9135;48.362;10.878;2023-05-23T12:11:06;5.97;;;4.72;;
18019;SDS011;9135;48.362;10.878;2023-05-23T12:13:32;7.43;;;4.72;;
18019;SDS011;9135;48.362;10.878;2023-05-23T12:15:59;6.63;;;4.97;;
18019;SDS011;9135;48.362;10.878;2023-05-23T12:18:29;5.35;;;4.10;;
18019;SDS011;9135;48.362;10.878;2023-05-23T12:20:59;12.35;;;4.32;;
18019;SDS011;9135;48.362;10.878;2023-05-23T12:23:27;5.38;;;4.65;;
18019;SDS011;9135;48.362;10.878;2023-05-23T12:25:53;9.05;;;5.25;;
18019;SDS011;9135;48.362;10.878;2023-05-23T12:28:20;7.07;;;4.55;;
18019;SDS011;9135;48.362;10.878;2023-05-23T12:30:47;7.85;;;5.13;;
18019;SDS011;9135;48.362;10.878;2023-05-23T12:33:13;6.43;;;4.68;;
18019;SDS011;9135;48.362;10.878;2023-05-23T12:35:43;6.88;;;4.55;;
18019;SDS011;9135;48.362;10.878;2023-05-23T12:38:13;8.02;;;4.63;;
18019;SDS011;9135;48.362;10.878;2023-05-23T12:40:40;7.50;;;5.30;;
18019;SDS011;9135;48.362;10.878;2023-05-23T12:43:07;5.22;;;4.72;;
18019;SDS011;9135;48.362;10.878;2023-05-23T12:45:35;9.30;;;5.18;;
18019;SDS011;9135;48.362;10.878;2023-05-23T12:48:02;6.90;;;4.82;;
18019;SDS011;9135;48.362;10.878;2023-05-23T12:50:28;7.82;;;4.28;;
18019;SDS011;9135;48.362;10.878;2023-05-23T12:52:55;6.25;;;4.38;;
18019;SDS011;9135;48.362;10.878;2023-05-23T12:55:21;6.38;;;4.68;;
18019;SDS011;9135;48.362;10.878;2023-05-23T12:57:47;6.95;;;5.53;;
18019;SDS011;9135;48.362;10.878;2023-05-23T13:00:13;5.70;;;4.53;;
18019;SDS011;9135;48.362;10.878;2023-05-23T13:02:39;5.35;;;4.63;;
18019;SDS011;9135;48.362;10.878;2023-05-23T13:05:05;7.22;;;4.65;;
18019;SDS011;9135;48.362;10.878;2023-05-23T13:07:32;7.28;;;4.80;;
18019;SDS011;9135;48.362;10.878;2023-05-23T13:09:58;6.72;;;4.18;;
18019;SDS011;9135;48.362;10.878;2023-05-23T13:12:24;11.57;;;4.78;;
18019;SDS011;9135;48.362;10.878;2023-05-23T13:14:50;5.85;;;3.88;;
18019;SDS011;9135;48.362;10.878;2023-05-23T13:17:16;4.88;;;3.55;;
18019;SDS011;9135;48.362;10.878;2023-05-23T13:19:42;5.18;;;3.38;;
18019;SDS011;9135;48.362;10.878;2023-05-23T13:22:08;3.40;;;2.78;;
18019;SDS011;9135;48.362;10.878;2023-05-23T13:24:38;7.03;;;4.07;;
18019;SDS011;9135;48.362;10.878;2023-05-23T13:27:05;8.55;;;4.13;;
18019;SDS011;9135;48.362;10.878;2023-05-23T13:29:31;6.22;;;4.57;;
18019;SDS011;9135;48.362;10.878;2023-05-23T13:31:58;4.88;;;4.15;;
18019;SDS011;9135;48.362;10.878;2023-05-23T13:34:24;4.85;;;3.72;;
18019;SDS011;9135;48.362;10.878;2023-05-23T13:36:52;4.35;;;3.45;;
18019;SDS011;9135;48.362;10.878;2023-05-23T13:39:18;4.95;;;3.90;;
18019;SDS011;9135;48.362;10.878;2023-05-23T13:41:48;6.45;;;3.80;;
18019;SDS011;9135;48.362;10.878;2023-05-23T13:44:14;5.88;;;4.25;;
18019;SDS011;9135;48.362;10.878;2023-05-23T13:46:41;6.95;;;4.53;;
18019;SDS011;9135;48.362;10.878;2023-05-23T13:49:07;5.00;;;3.22;;
18019;SDS011;9135;48.362;10.878;2023-05-23T13:51:33;4.28;;;3.55;;
18019;SDS011;9135;48.362;10.878;2023-05-23T13:54:01;5.55;;;3.55;;
18019;SDS011;9135;48.362;10.878;2023-05-23T13:56:27;11.20;;;4.60;;
18019;SDS011;9135;48.362;10.878;2023-05-23T13:58:54;3.85;;;3.40;;
18019;SDS011;9135;48.362;10.878;2023-05-23T14:01:20;7.57;;;4.57;;
18019;SDS011;9135;48.362;10.878;2023-05-23T14:03:46;4.40;;;3.90;;
18019;SDS011;9135;48.362;10.878;2023-05-23T14:06:12;4.90;;;3.97;;
18019;SDS011;9135;48.362;10.878;2023-05-23T14:08:38;5.63;;;3.63;;
18019;SDS011;9135;48.362;10.878;2023-05-23T14:11:04;6.00;;;3.63;;
18019;SDS011;9135;48.362;10.878;2023-05-23T14:13:30;3.50;;;2.88;;
18019;SDS011;9135;48.362;10.878;2023-05-23T14:15:57;5.82;;;3.92;;
18019;SDS011;9135;48.362;10.878;2023-05-23T14:18:23;5.45;;;3.70;;
18019;SDS011;9135;48.362;10.878;2023-05-23T14:20:49;3.50;;;3.03;;
18019;SDS011;9135;48.362;10.878;2023-05-23T14:23:15;5.05;;;3.47;;
18019;SDS011;9135;48.362;10.878;2023-05-23T14:25:41;4.82;;;3.60;;
18019;SDS011;9135;48.362;10.878;2023-05-23T14:28:07;3.83;;;3.20;;
18019;SDS011;9135;48.362;10.878;2023-05-23T14:30:33;3.63;;;3.33;;
18019;SDS011;9135;48.362;10.878;2023-05-23T14:32:59;3.80;;;3.50;;
18019;SDS011;9135;48.362;10.878;2023-05-23T14:35:25;4.72;;;3.95;;
18019;SDS011;9135;48.362;10.878;2023-05-23T14:37:53;3.65;;;3.28;;
18019;SDS011;9135;48.362;10.878;2023-05-23T14:40:19;4.25;;;3.17;;
18019;SDS011;9135;48.362;10.878;2023-05-23T14:42:45;4.50;;;3.78;;
18019;SDS011;9135;48.362;10.878;2023-05-23T14:45:11;9.82;;;4.38;;
18019;SDS011;9135;48.362;10.878;2023-05-23T14:47:37;4.55;;;3.63;;
18019;SDS011;9135;48.362;10.878;2023-05-23T14:50:03;5.18;;;3.40;;
18019;SDS011;9135;48.362;10.878;2023-05-23T14:52:30;3.80;;;3.13;;
18019;SDS011;9135;48.362;10.878;2023-05-23T14:54:56;3.47;;;2.65;;
18019;SDS011;9135;48.362;10.878;2023-05-23T14:57:22;3.35;;;2.80;;
18019;SDS011;9135;48.362;10.878;2023-05-23T14:59:48;6.97;;;3.00;;
18019;SDS011;9135;48.362;10.878;2023-05-23T15:02:14;4.85;;;2.50;;